Time;durP1;ratioP1;P1;durP2;ratioP2;P2;SDS_P1;SDS_P2;PMS_P1;PMS_P2;Temp;Humidity;BMP_temperature;BMP_pressure;BME280_temperature;BME280_humidity;BME280_pressure;Samples;Min_cycle;Max_cycle;Signal;HPM_P1;HPM_P2
2021/01/08 00:00:22;;;;;;;1.63;0.40;;;;;;;3.13;93.81;101326.31;5051206;28;20413;-53
2021/01/08 00:02:49;;;;;;;3.25;0.57;;;;;;;3.13;93.61;101329.06;5050777;28;20049;-54
2021/01/08 00:05:16;;;;;;;2.42;0.73;;;;;;;3.11;93.76;101339.50;5050664;28;20052;-53
2021/01/08 00:07:43;;;;;;;1.85;0.50;;;;;;;3.12;93.60;101335.66;5050861;28;20033;-55
2021/01/08 00:10:10;;;;;;;2.08;0.40;;;;;;;3.14;93.71;101332.66;5050850;28;20423;-54
2021/01/08 00:12:37;;;;;;;1.50;0.50;;;;;;;3.15;93.79;101334.34;5049189;28;20175;-51
2021/01/08 00:15:05;;;;;;;2.70;0.80;;;;;;;3.17;93.75;101337.69;5051015;28;20154;-52
2021/01/08 00:17:33;;;;;;;4.60;1.25;;;;;;;3.16;93.76;101325.00;5050867;28;20098;-53
2021/01/08 00:20:01;;;;;;;3.38;0.70;;;;;;;3.15;93.77;101328.81;5050197;28;20544;-52
2021/01/08 00:22:28;;;;;;;2.50;0.98;;;;;;;3.13;93.60;101323.53;5050856;28;20049;-49
2021/01/08 00:24:55;;;;;;;2.40;0.60;;;;;;;3.11;93.62;101322.94;5049560;28;20116;-53
2021/01/08 00:27:22;;;;;;;1.65;0.50;;;;;;;3.10;93.56;101324.03;5050720;28;20160;-54
2021/01/08 00:29:50;;;;;;;1.20;0.50;;;;;;;3.09;93.54;101333.38;5050327;28;20135;-54
2021/01/08 00:32:18;;;;;;;3.05;0.60;;;;;;;3.05;93.47;101327.47;5049016;28;20514;-57
2021/01/08 00:34:46;;;;;;;1.35;0.40;;;;;;;3.04;93.65;101325.81;5050034;28;20128;-52
2021/01/08 00:37:13;;;;;;;1.95;0.55;;;;;;;3.03;93.61;101324.13;5050837;28;20051;-57
2021/01/08 00:39:41;;;;;;;2.22;0.80;;;;;;;3.01;93.61;101331.78;5049635;28;20468;-56
2021/01/08 00:42:08;;;;;;;1.58;0.60;;;;;;;3.00;93.38;101330.09;5050601;28;20494;-54
2021/01/08 00:44:35;;;;;;;1.50;0.50;;;;;;;3.00;93.66;101327.34;5048843;28;20438;-56
2021/01/08 00:47:02;;;;;;;1.10;0.50;;;;;;;3.01;93.68;101323.53;5050080;28;20049;-54
2021/01/08 00:49:29;;;;;;;0.90;0.30;;;;;;;3.01;93.73;101320.75;5049607;28;20040;-58
2021/01/08 00:51:58;;;;;;;1.00;0.30;;;;;;;3.00;93.77;101321.84;5049375;28;20048;-53
2021/01/08 00:54:26;;;;;;;2.28;0.50;;;;;;;3.02;93.71;101319.69;5049825;28;20029;-53
2021/01/08 00:57:10;;;;;;;0.98;0.40;;;;;;;3.01;93.94;101319.91;5049206;28;20064;-54
2021/01/08 00:59:39;;;;;;;3.05;0.50;;;;;;;3.00;93.66;101316.31;5048818;28;20149;-53
2021/01/08 01:02:06;;;;;;;0.93;0.32;;;;;;;3.01;93.70;101311.66;5049705;28;20037;-51
2021/01/08 01:04:33;;;;;;;1.48;0.40;;;;;;;3.00;93.77;101313.56;5050099;28;20052;-56
2021/01/08 01:07:00;;;;;;;0.80;0.38;;;;;;;3.00;93.72;101321.84;5049767;28;20495;-55
2021/01/08 01:09:27;;;;;;;1.05;0.38;;;;;;;3.00;93.72;101318.25;5050071;28;20470;-51
2021/01/08 01:11:54;;;;;;;1.65;0.30;;;;;;;2.98;93.77;101313.00;5050232;28;20072;-53
2021/01/08 01:14:21;;;;;;;1.15;0.43;;;;;;;2.98;93.66;101313.00;5049986;28;20072;-54
2021/01/08 01:16:47;;;;;;;1.48;0.35;;;;;;;2.97;93.48;101319.59;5050385;28;20037;-52
2021/01/08 01:19:14;;;;;;;1.10;0.30;;;;;;;2.97;93.53;101318.75;5054693;28;20497;-55
2021/01/08 01:21:41;;;;;;;2.33;0.30;;;;;;;2.96;93.64;101311.56;5053324;28;20057;-52
2021/01/08 01:24:08;;;;;;;1.95;0.40;;;;;;;2.95;93.52;101318.13;5054165;28;20052;-57
2021/01/08 01:26:36;;;;;;;1.00;0.40;;;;;;;2.92;93.50;101321.38;5053836;28;20135;-55
2021/01/08 01:29:28;;;;;;;2.00;0.60;;;;;;;2.91;93.52;101320.53;5053474;28;20045;-58
2021/01/08 01:32:10;;;;;;;2.28;1.17;;;;;;;2.84;93.67;101325.28;5053769;28;20151;-58
2021/01/08 01:34:37;;;;;;;3.38;0.93;;;;;;;2.84;93.68;101335.47;5054236;28;20048;-55
2021/01/08 01:37:04;;;;;;;2.15;0.93;;;;;;;2.83;93.63;101331.88;5053136;28;20095;-54
2021/01/08 01:39:31;;;;;;;2.88;1.17;;;;;;;2.84;93.70;101330.81;5053761;28;20048;-56
2021/01/08 01:41:59;;;;;;;7.97;2.40;;;;;;;2.84;93.76;101341.84;5053704;28;20450;-55
2021/01/08 01:44:26;;;;;;;5.25;1.70;;;;;;;2.84;93.81;101341.84;5052025;28;20510;-54
2021/01/08 01:46:52;;;;;;;3.03;0.90;;;;;;;2.85;93.78;101343.50;5053101;28;20128;-53
2021/01/08 01:49:19;;;;;;;1.80;0.65;;;;;;;2.87;93.83;101344.13;5053230;28;20419;-56
2021/01/08 01:51:46;;;;;;;1.58;0.60;;;;;;;2.87;93.73;101344.13;5053417;28;20138;-56
2021/01/08 01:54:13;;;;;;;1.77;0.43;;;;;;;2.87;93.71;101344.13;5053543;28;20069;-58
2021/01/08 01:56:40;;;;;;;1.65;0.40;;;;;;;2.86;93.67;101350.69;5052629;28;20048;-56
2021/01/08 01:59:07;;;;;;;2.70;0.45;;;;;;;2.87;93.67;101351.53;5053756;28;20103;-56
2021/01/08 02:01:34;;;;;;;1.30;0.40;;;;;;;2.88;93.72;101351.31;5053263;28;20210;-58
2021/01/08 02:04:02;;;;;;;2.20;0.35;;;;;;;2.87;93.55;101349.63;5052692;28;20083;-55
2021/01/08 02:06:34;;;;;;;1.67;0.40;;;;;;;2.87;93.67;101352.38;5053000;28;20127;-57
2021/01/08 02:09:05;;;;;;;4.05;0.70;;;;;;;2.87;93.64;101351.53;5053514;28;20484;-56
2021/01/08 02:11:35;;;;;;;2.13;0.32;;;;;;;2.85;93.54;101356.44;5052908;28;20115;-58
2021/01/08 02:14:07;;;;;;;3.20;0.70;;;;;;;2.85;93.83;101354.53;5053403;28;20060;-59
2021/01/08 02:16:37;;;;;;;3.05;0.60;;;;;;;2.85;93.75;101360.03;5053254;28;20089;-57
2021/01/08 02:19:07;;;;;;;3.13;0.40;;;;;;;2.85;93.74;101357.28;5052578;28;20049;-58
2021/01/08 02:21:42;;;;;;;1.58;0.40;;;;;;;2.88;93.80;101358.75;5053286;28;20056;-59
2021/01/08 02:24:16;;;;;;;1.00;0.30;;;;;;;2.88;93.72;101358.75;5052406;28;20375;-58
2021/01/08 02:26:44;;;;;;;1.35;0.30;;;;;;;2.85;93.67;101360.03;5053209;28;20079;-54
2021/01/08 02:29:12;;;;;;;1.33;0.50;;;;;;;2.87;93.72;101362.56;5051329;28;20135;-59
2021/01/08 02:31:39;;;;;;;1.10;0.40;;;;;;;2.85;93.65;101365.56;5052536;28;20052;-57
2021/01/08 02:34:08;;;;;;;0.75;0.30;;;;;;;2.85;93.44;101359.22;5052729;28;20389;-56
2021/01/08 02:36:37;;;;;;;0.80;0.20;;;;;;;2.83;93.75;101359.44;5053098;28;20139;-58
2021/01/08 02:39:06;;;;;;;1.75;0.20;;;;;;;2.82;93.39;101366.03;5051984;28;20045;-58
2021/01/08 02:41:34;;;;;;;1.40;0.45;;;;;;;2.82;93.75;101373.44;5052731;28;20073;-58
2021/01/08 02:44:02;;;;;;;0.90;0.30;;;;;;;2.81;93.77;101367.09;5052291;28;20660;-57
2021/01/08 02:46:30;;;;;;;0.63;0.30;;;;;;;2.81;93.62;101367.09;5052189;28;20076;-58
2021/01/08 02:48:57;;;;;;;0.85;0.28;;;;;;;2.83;93.70;101377.88;5052509;28;20098;-54
2021/01/08 02:51:24;;;;;;;2.30;0.40;;;;;;;2.84;93.66;101377.66;5052561;28;20095;-57
2021/01/08 02:53:51;;;;;;;1.63;0.40;;;;;;;2.85;93.63;101382.09;5051608;28;20136;-56
2021/01/08 02:56:23;;;;;;;1.10;0.40;;;;;;;2.85;93.77;101376.59;5052659;28;20057;-53
2021/01/08 02:58:51;;;;;;;2.47;0.40;;;;;;;2.85;93.81;101373.81;5052415;28;20048;-51
2021/01/08 03:01:19;;;;;;;1.02;0.30;;;;;;;2.88;93.76;101375.28;5052077;28;20124;-53
2021/01/08 03:03:47;;;;;;;1.65;0.38;;;;;;;2.88;93.96;101384.38;5052307;28;20045;-52
2021/01/08 03:06:15;;;;;;;1.17;0.32;;;;;;;2.88;93.78;101383.53;5047834;28;20104;-56
2021/01/08 03:08:42;;;;;;;1.05;0.40;;;;;;;2.85;93.71;101379.34;5036334;28;20044;-54
2021/01/08 03:11:10;;;;;;;1.88;0.32;;;;;;;2.85;93.55;101384.00;5052005;28;20077;-50
2021/01/08 03:13:39;;;;;;;0.70;0.25;;;;;;;2.82;93.45;101385.31;5051299;28;20507;-52
2021/01/08 03:16:07;;;;;;;0.43;0.10;;;;;;;2.80;93.64;101387.47;5052493;28;20048;-54
2021/01/08 03:18:35;;;;;;;1.08;0.30;;;;;;;2.79;93.47;101379.47;5052087;28;20448;-52
2021/01/08 03:21:02;;;;;;;0.80;0.30;;;;;;;2.78;93.60;101386.88;5051462;28;20103;-53
2021/01/08 03:23:28;;;;;;;1.80;0.40;;;;;;;2.78;93.58;101388.81;5051919;28;20587;-55
2021/01/08 03:25:55;;;;;;;1.33;0.40;;;;;;;2.76;93.70;101384.38;5051448;28;20048;-52
2021/01/08 03:28:22;;;;;;;0.82;0.20;;;;;;;2.75;93.61;101384.59;5051583;28;20175;-56
2021/01/08 03:30:49;;;;;;;3.13;0.47;;;;;;;2.72;93.51;101391.41;5051609;28;20147;-57
2021/01/08 03:33:16;;;;;;;1.58;0.40;;;;;;;2.72;93.58;101387.81;5051905;28;20140;-55
2021/01/08 03:35:43;;;;;;;2.55;0.50;;;;;;;2.71;93.61;101378.72;5051016;28;20515;-56
2021/01/08 03:38:10;;;;;;;1.27;0.35;;;;;;;2.70;93.69;101381.69;5051597;28;20072;-51
2021/01/08 03:40:40;;;;;;;1.38;0.30;;;;;;;2.71;93.58;101384.22;5051082;28;20077;-57
2021/01/08 03:43:08;;;;;;;2.78;0.40;;;;;;;2.71;93.78;101384.22;5051337;28;20159;-54
2021/01/08 03:45:35;;;;;;;0.75;0.30;;;;;;;2.70;93.88;101384.44;5050998;28;20052;-52
2021/01/08 03:48:02;;;;;;;1.10;0.30;;;;;;;2.70;93.84;101381.69;5051504;28;20052;-55
2021/01/08 03:50:29;;;;;;;1.10;0.30;;;;;;;2.68;93.77;101381.09;5050592;28;20052;-57
2021/01/08 03:52:56;;;;;;;2.55;0.40;;;;;;;2.67;93.67;101382.16;5051319;28;20486;-55
2021/01/08 03:55:23;;;;;;;1.20;0.30;;;;;;;2.64;94.04;101377.13;5050955;28;20657;-51
2021/01/08 03:57:50;;;;;;;1.83;0.47;;;;;;;2.62;93.64;101382.00;5050895;28;20048;-58
2021/01/08 04:00:17;;;;;;;1.52;0.30;;;;;;;2.58;93.79;101381.66;5051121;28;20041;-58
2021/01/08 04:02:44;;;;;;;1.33;0.22;;;;;;;2.55;93.62;101386.78;5051692;28;20049;-58
2021/01/08 04:05:12;;;;;;;2.33;0.50;;;;;;;2.51;93.29;101383.66;5051451;28;20052;-56
2021/01/08 04:07:38;;;;;;;0.80;0.30;;;;;;;2.47;93.57;101381.59;5052230;28;20136;-57
2021/01/08 04:10:08;;;;;;;0.95;0.30;;;;;;;2.45;93.61;101381.84;5051947;28;20048;-59
2021/01/08 04:12:35;;;;;;;1.50;0.30;;;;;;;2.40;93.52;101388.03;5051724;28;20566;-56
2021/01/08 04:15:02;;;;;;;0.57;0.30;;;;;;;2.39;93.62;101391.03;5052468;28;20072;-57
2021/01/08 04:17:29;;;;;;;0.93;0.30;;;;;;;2.35;93.82;101390.66;5050831;28;20136;-58
2021/01/08 04:19:56;;;;;;;0.75;0.30;;;;;;;2.33;93.52;101401.06;5051974;28;20087;-57
2021/01/08 04:22:22;;;;;;;1.83;0.40;;;;;;;2.30;93.65;101398.78;5051600;28;20085;-57
2021/01/08 04:24:49;;;;;;;2.10;0.40;;;;;;;2.26;93.58;101393.94;5051342;28;20403;-57
2021/01/08 04:27:17;;;;;;;1.08;0.52;;;;;;;2.26;93.83;101393.94;5051497;28;20048;-59
2021/01/08 04:29:43;;;;;;;0.90;0.30;;;;;;;2.25;93.80;101392.28;5051795;28;20052;-58
2021/01/08 04:32:10;;;;;;;0.75;0.30;;;;;;;2.27;94.09;101393.72;5050763;28;20580;-57
2021/01/08 04:34:37;;;;;;;1.05;0.30;;;;;;;2.28;94.01;101391.81;5051457;28;20045;-59
2021/01/08 04:37:04;;;;;;;0.60;0.30;;;;;;;2.29;93.86;101390.75;5051467;28;20045;-58
2021/01/08 04:39:31;;;;;;;2.17;0.45;;;;;;;2.29;93.79;101394.34;5051046;28;20496;-58
2021/01/08 04:41:58;;;;;;;0.90;0.20;;;;;;;2.28;93.81;101389.91;5051443;28;20055;-58
2021/01/08 04:44:26;;;;;;;1.50;0.60;;;;;;;2.27;93.94;101392.88;5051486;28;20073;-57
2021/01/08 04:46:54;;;;;;;1.30;0.30;;;;;;;2.25;93.89;101395.03;5050670;28;20045;-58
2021/01/08 04:49:21;;;;;;;1.30;0.38;;;;;;;2.23;93.56;101397.16;5051606;28;20049;-58
2021/01/08 04:51:48;;;;;;;1.48;0.20;;;;;;;2.23;93.53;101398.00;5050605;28;20106;-57
2021/01/08 04:54:15;;;;;;;0.68;0.20;;;;;;;2.21;93.94;101400.16;5050875;28;20047;-59
2021/01/08 04:56:44;;;;;;;0.52;0.20;;;;;;;2.20;93.80;101409.47;5051466;28;20143;-57
2021/01/08 04:59:12;;;;;;;3.15;0.55;;;;;;;2.18;93.75;101405.28;5050530;28;20045;-57
2021/01/08 05:01:39;;;;;;;2.30;0.40;;;;;;;2.16;93.45;101397.25;5051426;28;20041;-59
2021/01/08 05:04:06;;;;;;;1.35;0.40;;;;;;;2.15;93.50;101412.09;5051022;28;20079;-59
2021/01/08 05:06:34;;;;;;;0.73;0.30;;;;;;;2.15;93.71;101406.59;5050573;28;20124;-58
2021/01/08 05:09:00;;;;;;;1.58;0.35;;;;;;;2.15;93.77;101412.09;5051065;28;20470;-59
2021/01/08 05:11:28;;;;;;;1.00;0.40;;;;;;;2.15;94.03;101411.25;5051342;28;20051;-58
2021/01/08 05:13:56;;;;;;;1.23;0.40;;;;;;;2.14;93.78;101418.69;5049922;28;20045;-59
2021/01/08 05:16:25;;;;;;;1.13;0.30;;;;;;;2.12;93.84;101415.31;5051447;28;20811;-59
2021/01/08 05:18:54;;;;;;;1.73;0.30;;;;;;;2.11;93.77;101416.38;5050926;28;20128;-59
2021/01/08 05:21:24;;;;;;;1.17;0.50;;;;;;;2.10;93.98;101420.19;5050659;28;20147;-58
2021/01/08 05:23:52;;;;;;;0.90;0.30;;;;;;;2.08;93.68;101423.19;5050695;28;20053;-57
2021/01/08 05:26:20;;;;;;;0.98;0.30;;;;;;;2.08;93.90;101425.94;5051170;28;20057;-60
2021/01/08 05:28:48;;;;;;;1.02;0.30;;;;;;;2.08;93.74;101422.34;5050152;28;21439;-59
2021/01/08 05:31:16;;;;;;;1.13;0.40;;;;;;;2.07;93.53;101431.66;5051230;28;20049;-57
2021/01/08 05:33:43;;;;;;;1.20;0.30;;;;;;;2.06;93.73;101429.97;5050828;28;20419;-59
2021/01/08 05:36:12;;;;;;;0.50;0.30;;;;;;;2.06;93.72;101438.25;5050421;28;20133;-57
2021/01/08 05:38:43;;;;;;;1.15;0.25;;;;;;;2.05;93.89;101439.31;5051087;28;20057;-59
2021/01/08 05:41:11;;;;;;;0.85;0.30;;;;;;;2.02;93.59;101437.84;5050601;28;20048;-58
2021/01/08 05:43:42;;;;;;;0.70;0.30;;;;;;;2.04;93.72;101443.13;5050523;28;20083;-58
2021/01/08 05:46:11;;;;;;;2.60;0.68;;;;;;;2.04;93.85;101449.47;5050907;28;20514;-59
2021/01/08 05:48:41;;;;;;;1.10;0.40;;;;;;;2.05;93.87;101447.56;5050293;28;20048;-60
2021/01/08 05:51:09;;;;;;;1.40;0.40;;;;;;;2.05;93.97;101445.66;5046087;28;20060;-59
2021/01/08 05:53:38;;;;;;;1.30;0.50;;;;;;;2.07;94.12;101449.03;5050810;28;20040;-59
2021/01/08 05:56:06;;;;;;;1.23;0.32;;;;;;;2.08;93.70;101447.13;5049813;28;20049;-59
2021/01/08 05:58:33;;;;;;;1.20;0.40;;;;;;;2.10;93.90;101455.16;5050959;28;20090;-59
2021/01/08 06:01:01;;;;;;;0.88;0.32;;;;;;;2.12;93.60;101464.00;5050330;28;20055;-60
2021/01/08 06:03:29;;;;;;;1.10;0.40;;;;;;;2.11;93.55;101454.91;5052090;28;20060;-59
2021/01/08 06:05:58;;;;;;;1.17;0.20;;;;;;;2.11;93.99;101454.91;5053546;28;20132;-60
2021/01/08 06:08:26;;;;;;;2.20;0.40;;;;;;;2.11;93.71;101465.94;5053975;28;20424;-60
2021/01/08 06:10:56;;;;;;;1.00;0.38;;;;;;;2.10;93.52;101461.50;5051877;28;20136;-61
2021/01/08 06:13:27;;;;;;;1.17;0.43;;;;;;;2.06;93.36;101458.34;5054286;28;20044;-60
2021/01/08 06:15:55;;;;;;;1.85;0.68;;;;;;;2.04;93.40;101463.25;5053854;28;20128;-60
2021/01/08 06:18:24;;;;;;;1.90;0.50;;;;;;;2.02;93.43;101464.53;5053411;28;20080;-61
2021/01/08 06:20:53;;;;;;;2.75;0.60;;;;;;;2.00;93.51;101467.50;5053349;28;20124;-60
2021/01/08 06:23:36;;;;;;;2.17;0.50;;;;;;;2.00;93.85;101473.00;5054231;28;20044;-60
2021/01/08 06:26:11;;;;;;;1.63;0.80;;;;;;;1.96;93.67;101468.22;5053710;28;20045;-60
2021/01/08 06:28:42;;;;;;;2.85;0.70;;;;;;;1.96;93.78;101473.72;5053996;28;20190;-61
2021/01/08 06:31:24;;;;;;;1.80;0.70;;;;;;;1.95;93.55;101474.78;5052926;28;20123;-61
2021/01/08 06:33:54;;;;;;;2.35;0.82;;;;;;;1.92;93.70;101480.75;5053911;28;20053;-61
2021/01/08 06:36:23;;;;;;;1.98;0.70;;;;;;;1.91;93.74;101484.56;5053536;28;20076;-60
2021/01/08 06:38:55;;;;;;;1.33;0.50;;;;;;;1.91;93.61;101490.06;5053153;28;20076;-61
2021/01/08 06:41:23;;;;;;;2.97;0.80;;;;;;;1.89;93.63;101490.28;5053286;28;20149;-61
2021/01/08 06:43:52;;;;;;;2.95;0.95;;;;;;;1.88;93.48;101488.59;5053605;28;20044;-61
2021/01/08 06:46:30;;;;;;;2.28;0.77;;;;;;;1.87;93.66;101491.59;5052746;28;20080;-60
2021/01/08 06:48:58;;;;;;;2.38;0.82;;;;;;;1.84;93.58;101494.78;5053665;28;20048;-60
2021/01/08 06:51:28;;;;;;;1.80;0.73;;;;;;;1.83;93.55;101495.84;5053221;28;20058;-60
2021/01/08 06:53:56;;;;;;;2.40;0.95;;;;;;;1.82;93.48;101495.00;5052826;28;20049;-61
2021/01/08 06:56:29;;;;;;;1.83;0.70;;;;;;;1.81;93.79;101504.31;5053006;28;20068;-61
2021/01/08 06:58:56;;;;;;;3.55;1.30;;;;;;;1.79;93.39;101500.97;5052819;28;20565;-60
2021/01/08 07:01:29;;;;;;;2.67;1.20;;;;;;;1.75;93.57;101501.66;5053093;28;20049;-60
2021/01/08 07:03:56;;;;;;;3.22;1.15;;;;;;;1.67;93.34;101509.09;5053125;28;20045;-60
2021/01/08 07:06:23;;;;;;;1.42;0.65;;;;;;;1.62;93.20;101500.69;5052189;28;20119;-60
2021/01/08 07:08:50;;;;;;;3.42;1.15;;;;;;;1.60;93.74;101511.06;5052819;28;20107;-60
2021/01/08 07:11:25;;;;;;;2.40;0.80;;;;;;;1.59;93.37;101523.16;5053233;28;20159;-60
2021/01/08 07:14:04;;;;;;;1.13;0.52;;;;;;;1.56;93.86;101523.59;5048708;28;20447;-60
2021/01/08 07:16:31;;;;;;;1.80;0.90;;;;;;;1.53;93.31;101521.28;5052670;28;20127;-60
2021/01/08 07:19:05;;;;;;;1.30;0.50;;;;;;;1.52;93.98;101519.59;5052378;28;20033;-60
2021/01/08 07:21:33;;;;;;;4.40;1.10;;;;;;;1.49;93.52;101527.47;5052754;28;20059;-59
2021/01/08 07:24:01;;;;;;;3.80;0.80;;;;;;;1.46;93.98;101523.25;5052627;28;20134;-59
2021/01/08 07:26:28;;;;;;;1.95;0.68;;;;;;;1.44;93.39;101536.38;5052993;28;20481;-59
2021/01/08 07:28:57;;;;;;;4.25;1.20;;;;;;;1.41;93.33;101539.56;5051784;28;20080;-58
2021/01/08 07:31:32;;;;;;;3.40;0.85;;;;;;;1.40;93.28;101540.63;5052769;28;20098;-60
2021/01/08 07:34:01;;;;;;;2.85;1.30;;;;;;;1.40;93.68;101539.81;5051731;28;20495;-57
2021/01/08 07:36:29;;;;;;;3.60;0.93;;;;;;;1.38;94.01;101554.63;5052796;28;20147;-58
2021/01/08 07:38:56;;;;;;;2.10;0.73;;;;;;;1.37;93.56;101547.44;5052006;28;20139;-59
2021/01/08 07:41:30;;;;;;;2.17;0.90;;;;;;;1.36;93.88;101550.41;5051813;28;20370;-59
2021/01/08 07:43:58;;;;;;;3.13;0.82;;;;;;;1.33;93.89;101550.84;5051751;28;20052;-60
2021/01/08 07:46:29;;;;;;;2.38;1.02;;;;;;;1.30;93.72;101554.88;5052510;28;20052;-59
2021/01/08 07:48:57;;;;;;;2.28;1.10;;;;;;;1.26;93.96;101559.13;5051494;28;20040;-61
2021/01/08 07:51:43;;;;;;;2.50;0.60;;;;;;;1.25;93.28;101571.19;5052266;28;20120;-59
2021/01/08 07:54:10;;;;;;;2.40;0.68;;;;;;;1.23;93.69;101575.22;5051653;28;20041;-59
2021/01/08 07:57:03;;;;;;;3.17;1.00;;;;;;;1.24;93.67;101574.16;5051873;28;20095;-59
2021/01/08 07:59:31;;;;;;;2.17;0.90;;;;;;;1.20;93.72;101583.91;5052192;28;20064;-57
2021/01/08 08:01:59;;;;;;;2.13;0.75;;;;;;;1.18;93.82;101597.03;5051670;28;20055;-54
2021/01/08 08:04:29;;;;;;;2.72;0.80;;;;;;;1.17;93.57;101604.44;5050995;28;20045;-56
2021/01/08 08:06:59;;;;;;;2.95;1.30;;;;;;;1.15;94.03;101605.72;5051845;28;20048;-58
2021/01/08 08:09:25;;;;;;;3.00;1.08;;;;;;;1.11;93.29;101608.06;5051173;28;20053;-61
2021/01/08 08:11:52;;;;;;;3.25;0.90;;;;;;;1.10;93.32;101611.03;5051819;28;20587;-63
2021/01/08 08:14:20;;;;;;;3.42;1.55;;;;;;;1.09;93.27;101610.19;5051620;28;20036;-64
2021/01/08 08:16:49;;;;;;;2.92;0.98;;;;;;;1.07;93.84;101611.44;5051731;28;20391;-65
2021/01/08 08:19:17;;;;;;;3.05;1.30;;;;;;;1.07;93.84;101617.78;5051841;28;20455;-64
2021/01/08 08:21:48;;;;;;;5.03;1.63;;;;;;;1.09;93.58;101610.19;5051773;28;20252;-63
2021/01/08 08:24:17;;;;;;;2.50;1.20;;;;;;;1.10;93.71;101622.00;5050895;28;20153;-62
2021/01/08 08:26:49;;;;;;;6.20;4.10;;;;;;;1.08;93.83;101624.13;5041480;28;20045;-60
2021/01/08 08:29:17;;;;;;;5.85;3.25;;;;;;;1.11;93.52;101626.44;5051443;28;20033;-59
2021/01/08 08:31:46;;;;;;;6.50;2.80;;;;;;;1.16;93.73;101629.41;5051012;28;20503;-59
2021/01/08 08:34:15;;;;;;;5.03;2.42;;;;;;;1.18;93.79;101630.88;5050906;28;20064;-54
2021/01/08 08:36:42;;;;;;;4.60;2.65;;;;;;;1.23;93.74;101632.94;5051419;28;20136;-56
2021/01/08 08:39:12;;;;;;;3.63;2.15;;;;;;;1.28;94.13;101636.72;5051065;28;20428;-54
2021/01/08 08:41:41;;;;;;;3.90;2.42;;;;;;;1.32;93.67;101643.47;5051400;28;20055;-56
2021/01/08 08:44:10;;;;;;;3.47;2.13;;;;;;;1.37;93.98;101640.06;5048024;28;20139;-57
2021/01/08 08:46:41;;;;;;;2.80;1.60;;;;;;;1.42;94.16;101647.66;5050425;28;20048;-57
2021/01/08 08:49:10;;;;;;;3.30;2.05;;;;;;;1.48;93.87;101647.63;5050729;28;20056;-56
2021/01/08 08:51:42;;;;;;;4.10;1.80;;;;;;;1.54;94.20;101655.00;5050276;28;20115;-56
2021/01/08 08:54:09;;;;;;;4.10;2.42;;;;;;;1.60;94.11;101662.34;5051144;28;20049;-58
2021/01/08 08:56:40;;;;;;;3.92;2.13;;;;;;;1.68;93.75;101669.50;5050720;28;20080;-58
2021/01/08 08:59:07;;;;;;;3.95;2.10;;;;;;;1.75;93.74;101666.72;5050702;28;20040;-55
2021/01/08 09:01:43;;;;;;;3.10;1.75;;;;;;;1.86;93.87;101677.84;5051066;28;20072;-58
2021/01/08 09:04:10;;;;;;;3.67;2.20;;;;;;;1.98;93.96;101678.00;5051122;28;20095;-56
2021/01/08 09:06:41;;;;;;;3.65;1.95;;;;;;;2.20;94.51;101678.47;5050305;28;20047;-58
2021/01/08 09:09:18;;;;;;;6.63;2.50;;;;;;;2.53;94.45;101676.28;5051203;28;20119;-60
2021/01/08 09:11:56;;;;;;;3.70;2.15;;;;;;;2.91;94.60;101676.09;5050836;28;20063;-62
2021/01/08 09:14:26;;;;;;;3.40;2.00;;;;;;;3.26;94.30;101683.75;5050551;28;20449;-65
2021/01/08 09:16:53;;;;;;;4.38;2.42;;;;;;;3.50;93.61;101679.22;5050649;28;20060;-66
2021/01/08 09:19:32;;;;;;;3.25;2.13;;;;;;;3.78;93.52;101683.06;5050723;28;20052;-63
2021/01/08 09:22:04;;;;;;;3.63;2.40;;;;;;;4.15;93.37;101682.94;5050548;28;20072;-57
2021/01/08 09:24:33;;;;;;;3.55;2.30;;;;;;;4.54;93.03;101686.13;5050961;28;20116;-54
2021/01/08 09:27:00;;;;;;;3.72;2.20;;;;;;;4.76;91.93;101690.81;5050177;28;20048;-61
2021/01/08 09:29:31;;;;;;;4.60;2.60;;;;;;;4.87;91.22;101691.06;5050856;28;20124;-62
2021/01/08 09:31:59;;;;;;;4.45;2.42;;;;;;;5.03;91.16;101690.31;5050547;28;20048;-61
2021/01/08 09:34:28;;;;;;;3.30;2.20;;;;;;;5.23;91.16;101692.69;5050133;28;20053;-63
2021/01/08 09:36:57;;;;;;;3.72;2.05;;;;;;;5.51;91.25;101695.53;5050630;28;20403;-63
2021/01/08 09:39:27;;;;;;;3.20;1.80;;;;;;;5.85;90.66;101702.84;5054174;28;20099;-61
2021/01/08 09:41:57;;;;;;;2.92;1.83;;;;;;;6.21;90.06;101703.53;5053962;28;20132;-64
2021/01/08 09:44:30;;;;;;;4.43;2.22;;;;;;;6.62;89.58;101705.09;5054113;28;20493;-62
2021/01/08 09:46:59;;;;;;;4.35;2.33;;;;;;;6.99;88.33;101710.97;4988377;28;81478;-63
2021/01/08 09:49:27;;;;;;;2.65;1.80;;;;;;;7.39;87.48;101712.66;5068047;28;20127;-62
2021/01/08 09:52:00;;;;;;;5.97;2.75;;;;;;;7.67;86.40;101712.44;5047274;28;20171;-63
2021/01/08 09:54:44;;;;;;;3.30;2.00;;;;;;;7.89;85.41;101716.03;5074259;28;20047;-62
2021/01/08 09:57:24;;;;;;;4.30;1.60;;;;;;;8.01;84.85;101717.81;5072612;28;20102;-62
2021/01/08 09:59:55;;;;;;;4.18;1.55;;;;;;;8.14;84.26;101711.88;5063440;28;20060;-63
2021/01/08 10:02:39;;;;;;;3.55;1.83;;;;;;;8.18;83.32;101724.16;5073753;28;20056;-62
2021/01/08 10:05:08;;;;;;;4.40;2.03;;;;;;;8.29;83.45;101720.34;5074241;28;20495;-63
2021/01/08 10:07:42;;;;;;;4.97;2.17;;;;;;;8.48;82.26;101731.97;5073819;28;20060;-63
2021/01/08 10:10:12;;;;;;;4.78;2.33;;;;;;;8.58;81.79;101730.13;5073865;28;20109;-63
2021/01/08 10:12:46;;;;;;;4.82;2.40;;;;;;;8.59;80.82;101736.53;5073805;28;20059;-62
2021/01/08 10:15:15;;;;;;;4.65;2.33;;;;;;;8.56;80.98;101739.84;5073820;28;20044;-63
2021/01/08 10:17:47;;;;;;;5.00;2.10;;;;;;;8.72;80.18;101732.47;5073275;28;20175;-62
2021/01/08 10:20:15;;;;;;;3.40;1.80;;;;;;;9.00;79.04;101737.66;5073867;28;20060;-62
2021/01/08 10:22:46;;;;;;;4.68;1.80;;;;;;;9.51;77.76;101733.28;5069720;28;20048;-62
2021/01/08 10:25:27;;;;;;;3.72;1.80;;;;;;;10.22;76.34;101741.91;5070178;28;20041;-60
2021/01/08 10:28:15;;;;;;;2.65;1.45;;;;;;;10.83;73.85;101747.56;5073498;28;20054;-62
2021/01/08 10:30:45;;;;;;;3.97;1.70;;;;;;;11.03;72.30;101750.34;5073203;28;20071;-62
2021/01/08 10:33:15;;;;;;;4.10;1.50;;;;;;;10.96;72.04;101744.25;5072459;28;20521;-62
2021/01/08 10:35:47;;;;;;;2.67;1.65;;;;;;;11.05;70.11;101747.28;5073672;28;20136;-61
2021/01/08 10:38:13;;;;;;;4.05;1.55;;;;;;;10.81;70.01;101754.56;5072893;28;20044;-61
2021/01/08 10:40:45;;;;;;;3.00;1.60;;;;;;;10.78;69.66;101749.56;5069909;28;20153;-62
2021/01/08 10:43:14;;;;;;;2.63;1.30;;;;;;;10.85;69.02;101752.88;5073176;28;20140;-62
2021/01/08 10:45:44;;;;;;;3.08;1.20;;;;;;;11.10;68.19;101746.44;5072732;28;20044;-61
2021/01/08 10:48:11;;;;;;;2.42;1.27;;;;;;;11.20;67.40;101752.84;5073519;28;20079;-61
2021/01/08 10:50:38;;;;;;;2.58;0.90;;;;;;;11.17;67.24;101747.84;5071904;28;20048;-63
2021/01/08 10:53:05;;;;;;;2.53;0.95;;;;;;;10.99;67.36;101749.25;5072890;28;20079;-62
2021/01/08 10:55:32;;;;;;;2.22;1.00;;;;;;;11.09;66.81;101745.63;5072367;28;20091;-63
2021/01/08 10:57:59;;;;;;;4.03;1.30;;;;;;;11.21;65.42;101750.88;5072518;28;20500;-62
2021/01/08 11:00:26;;;;;;;1.95;0.90;;;;;;;11.29;65.54;101740.00;5072803;28;20467;-60
2021/01/08 11:02:53;;;;;;;2.40;0.93;;;;;;;11.42;65.53;101740.50;5073258;28;20045;-61
2021/01/08 11:05:20;;;;;;;1.85;0.77;;;;;;;11.56;64.94;101741.63;5071615;28;20514;-61
2021/01/08 11:07:47;;;;;;;1.95;1.00;;;;;;;11.60;65.00;101737.09;5072857;28;20036;-59
2021/01/08 11:10:16;;;;;;;3.03;1.17;;;;;;;11.93;63.99;101742.06;5072359;28;20051;-60
2021/01/08 11:12:43;;;;;;;2.08;0.70;;;;;;;12.34;62.42;101739.88;5072155;28;20101;-59
2021/01/08 11:15:11;;;;;;;1.55;0.70;;;;;;;12.80;61.23;101744.28;5072245;28;20501;-55
2021/01/08 11:17:38;;;;;;;1.40;0.68;;;;;;;13.36;59.32;101744.66;5072718;28;20046;-59
2021/01/08 11:20:07;;;;;;;1.70;1.00;;;;;;;13.71;58.11;101743.41;5071592;28;20083;-55
2021/01/08 11:22:33;;;;;;;2.00;0.90;;;;;;;13.88;57.25;101743.75;5072559;28;20044;-57
2021/01/08 11:25:01;;;;;;;1.83;0.82;;;;;;;13.89;56.87;101739.81;5072187;28;20064;-57
2021/01/08 11:27:28;;;;;;;1.42;0.65;;;;;;;13.81;55.87;101743.25;5072064;28;20140;-58
2021/01/08 11:29:55;;;;;;;1.90;0.80;;;;;;;13.54;55.78;101738.28;5072483;28;20553;-59
2021/01/08 11:32:21;;;;;;;2.78;0.70;;;;;;;13.48;56.09;101739.47;5072292;28;20079;-60
2021/01/08 11:34:49;;;;;;;1.17;0.60;;;;;;;13.39;56.19;101742.06;5071850;28;20099;-60
2021/01/08 11:37:16;;;;;;;2.08;0.70;;;;;;;13.15;56.86;101740.34;5071705;28;20052;-60
2021/01/08 11:39:46;;;;;;;2.85;0.70;;;;;;;12.84;57.40;101743.41;5072616;28;20048;-61